Fort St John Airport
CYXJ : now visible

Airfield :











YOU CAN JOIN US ON...

 
LOGIN :

Register | Disclaimer

   EN    FR    IT 

 









Legend :    VFR   Marginal VFR   IFR   Intensive IFR   Very Intensive IFR
Visi :
Ceiling :
>= 8 km
>= 3000ft
5 to 8 km
1000 to 3000 ft
1500m to 5 km
500 to 1000 ft
800 to 1500m
200 to 500 ft
< 800m
< 200 ft
Symbols :   Thunderstorms  Fog  Heavy snow  Heavy precipitations  Wind > 20 kt






- Airport Elevation : 2280 ft
- IATA code : YXJ


CYXJ - Fort St John

CURRENT METAR :
  • 220526Z 12008KT 3SM -SN BKN023 OVC030 M06/M07 A2952 RMK SC6SC2 SLP045

EXPIRED METARs :
  • 220503Z 11009KT 2SM -SN BKN011 OVC030 M06/M07 A2952 RMK SC5SC3 SLP044
  • 220412Z 11006KT 7SM -SN OVC055 M08/M09 A2952 RMK SC8 SLP044
  • 220400Z 12006KT 15SM BKN062 M08/M09 A2952 RMK SC7 SLP046
  • 220315Z 11003KT 15SM BKN055 BKN075 M09/M10 A2952 RMK SC5AC2 SLP044

TAF AMD TAF CYXJ
Valid from the 22 at 05:00 until the 22 at 13:00 UTC


220511Z 2205/2213 11010KT P6SM -SN SCT012 OVC030
TEMPO 2205/2209 2SM -SN BKN012 OVC030
BECMG 2206/2208 22005KT
FM220900 22005KT P6SM FEW030 SCT120 RMK NXT FCST BY 220700Z



MET'MAP, your aeronautical weather chart ! - Copyright ORBIFLY December 2007 - Disclaimer

ORBIFLY MET'MAP TEAM :

Programming & Development : Alexandra Zaïnal
Concept & original design : Baudouin d'Aumeries
Assistance for programming : Marc-Olivier Méhu
Technical & hardware support : Manuel Goepfert

Contact : metmap@orbifly.com




SOURCES & CREDITS :

   NOAA       Earth
Advisory